MYGF METAR and TAF weather

Enter ICAO airport designator
Station Type Date Time Source
MYGF METAR 2019/08/24 17:00 UTC NOAA

MYGF 241700Z 21007KT 8000 -TSRA FEW008 BKN012CB BKN070 27/25 A2996


Station Type Date Time Source
MYGF Decoded METAR 2019/08/24 17:00 UTC NOAA

Station name not available
Aug 24, 2019 - 01:00 PM EDT / 2019.08.24 1700 UTC
Wind: from the SSW (210 degrees) at 8 MPH (7 KT):0
Visibility: 4 mile(s):0
Sky conditions: mostly cloudy
Weather: light rain with thunder; Cumulonimbus clouds observed
Temperature: 80 F (27 C)
Dew Point: 77 F (25 C)
Relative Humidity: 88%
Pressure (altimeter): 29.96 in. Hg (1014 hPa)
ob: MYGF 241700Z 21007KT 8000 -TSRA FEW008 BKN012CB BKN070 27/25 A2996
cycle: 17

Station Type Date Time Source
MYGF TAF 2019/08/24 18:27 UTC NOAA

TAF TAF MYGF 241700Z 2418/2518 19012KT 8000 TSRA FEW012 BKN015CB
BECMG 2500/2506 8000 SHRA PROB30
TEMPO 2512/2518 21011G21KT 6000 TSRA SCT015CB SCT018 BKN120

Example: see airport list